createdAt,value
2019-04-19T00:02:19.903Z,35.1
2019-04-19T00:13:06.500Z,35.1
2019-04-19T00:23:27.968Z,35.2
2019-04-19T00:33:39.000Z,35.3
2019-04-19T00:45:05.263Z,35.5
2019-04-19T00:55:50.800Z,36.0
2019-04-19T01:06:47.152Z,36.1
2019-04-19T01:17:11.231Z,36.4
2019-04-19T01:27:30.845Z,36.5
2019-04-19T01:38:33.590Z,37.1
2019-04-19T01:52:55.495Z,37.2
2019-04-19T02:02:50.177Z,36.9
2019-04-19T02:13:04.076Z,37.0
2019-04-19T02:23:11.460Z,37.3
2019-04-19T03:05:29.400Z,37.8
2019-04-19T03:15:41.009Z,38.0
2019-04-19T03:26:50.520Z,38.9
2019-04-19T03:36:54.906Z,39.0
2019-04-19T03:47:17.818Z,39.1
2019-04-19T03:57:23.129Z,39.1
2019-04-19T04:07:29.087Z,38.9
2019-04-19T04:18:47.654Z,39.1
2019-04-19T04:29:29.379Z,39.3
2019-04-19T04:41:21.278Z,39.7
2019-04-19T04:51:39.321Z,39.9
2019-04-19T05:02:27.467Z,40.4
2019-04-19T05:13:00.657Z,40.2
2019-04-19T05:36:04.319Z,40.5
2019-04-19T05:48:44.847Z,40.9
2019-04-19T05:59:44.527Z,40.4
2019-04-19T06:09:47.587Z,41.0
2019-04-19T06:21:07.739Z,42.1
2019-04-19T06:33:32.400Z,42.4
2019-04-19T06:43:46.419Z,43.1
2019-04-19T06:54:09.475Z,43.5
2019-04-19T07:04:44.048Z,43.0
2019-04-19T07:16:04.267Z,43.8
2019-04-19T07:26:58.108Z,43.9
2019-04-19T07:37:34.857Z,43.0
2019-04-19T07:47:45.548Z,41.5
2019-04-19T08:10:21.426Z,36.1
2019-04-19T08:34:01.821Z,32.3
2019-04-19T08:44:58.106Z,30.4
2019-04-19T08:55:40.625Z,29.6
2019-04-19T09:18:32.411Z,27.8
2019-04-19T09:29:19.537Z,27.2
2019-04-19T09:39:48.694Z,27.0
2019-04-19T09:52:30.439Z,25.8
2019-04-19T10:05:34.894Z,25.9
2019-04-19T10:17:13.840Z,25.6
2019-04-19T10:28:22.338Z,25.6
2019-04-19T10:39:19.154Z,24.5
2019-04-19T10:51:13.328Z,24.6
2019-04-19T11:14:34.433Z,21.3
2019-04-19T11:25:20.197Z,21.2
2019-04-19T11:36:53.720Z,20.8
2019-04-19T12:02:56.054Z,20.0
2019-04-19T12:13:11.096Z,19.7
2019-04-19T12:36:43.382Z,19.9
2019-04-19T12:47:45.051Z,20.0
2019-04-19T13:12:48.266Z,22.1
2019-04-19T13:23:24.275Z,22.2
2019-04-19T13:34:41.261Z,23.2
2019-04-19T13:47:14.519Z,23.4
2019-04-19T13:58:07.632Z,24.6
2019-04-19T14:09:00.731Z,24.4
2019-04-19T14:20:03.115Z,24.6
2019-04-19T14:43:38.514Z,23.9
2019-04-19T15:07:58.827Z,24.1
2019-04-19T15:18:57.979Z,23.8
2019-04-19T15:29:47.498Z,23.5
2019-04-19T15:39:58.076Z,23.0
2019-04-19T15:51:10.328Z,23.5
2019-04-19T16:14:07.972Z,24.2
2019-04-19T16:24:51.590Z,24.8
2019-04-19T16:35:05.567Z,25.6
2019-04-19T16:45:15.724Z,26.2
2019-04-19T16:55:29.732Z,26.3
2019-04-19T17:20:27.974Z,28.1
2019-04-19T19:20:29.339Z,32.9
2019-04-19T19:30:40.978Z,33.4
2019-04-19T19:42:32.822Z,33.4
2019-04-19T19:53:25.759Z,33.6
2019-04-19T20:05:03.264Z,33.8
2019-04-19T20:31:40.524Z,34.3
2019-04-19T20:41:50.653Z,34.6
2019-04-19T20:57:54.466Z,35.1
2019-04-19T21:11:46.441Z,35.2
2019-04-19T21:38:28.478Z,35.7
2019-04-19T21:48:49.010Z,36.1
2019-04-19T22:11:40.494Z,36.3
2019-04-19T22:21:54.956Z,36.6
2019-04-19T22:32:46.506Z,36.7
2019-04-19T22:43:29.309Z,36.9
2019-04-19T22:54:30.821Z,37.1
2019-04-19T23:04:48.336Z,37.6
2019-04-19T23:14:57.270Z,37.7
2019-04-19T23:25:36.685Z,37.8
2019-04-19T23:37:11.833Z,38.4
2019-04-19T23:47:22.397Z,38.7
2019-04-19T23:57:36.036Z,38.6
